Time;durP1;ratioP1;P1;durP2;ratioP2;P2;SDS_P1;SDS_P2;PMS_P1;PMS_P2;Temp;Humidity;BMP_temperature;BMP_pressure;BME280_temperature;BME280_humidity;BME280_pressure;Samples;Min_cycle;Max_cycle;Signal;HPM_P1;HPM_P2
2021/06/27 00:00:42;;;;;;;57.28;31.73;;;;;;;;;;4990566;28;20058;-70
2021/06/27 00:03:09;;;;;;;54.92;30.95;;;;;;;;;;4987994;28;20041;-70
2021/06/27 00:05:36;;;;;;;53.72;30.75;;;;;;;;;;4992916;28;20038;-70
2021/06/27 00:08:02;;;;;;;53.30;30.90;;;;;;;;;;4988341;28;20113;-70
2021/06/27 00:10:36;;;;;;;60.67;34.42;;;;;;;;;;5006539;28;20025;-70
2021/06/27 00:13:02;;;;;;;105.05;54.65;;;;;;;;;;4983599;28;20026;-70
2021/06/27 00:15:33;;;;;;;76.80;42.28;;;;;;;;;;4990032;28;20037;-70
2021/06/27 00:18:01;;;;;;;76.17;40.73;;;;;;;;;;5004094;28;20018;-70
2021/06/27 00:20:29;;;;;;;75.18;44.00;;;;;;;;;;5001802;28;20150;-70
2021/06/27 00:22:55;;;;;;;73.53;43.30;;;;;;;;;;4990434;28;20501;-70
2021/06/27 00:25:23;;;;;;;77.07;44.72;;;;;;;;;;5008762;28;20045;-70
2021/06/27 00:27:50;;;;;;;80.60;47.10;;;;;;;;;;4994360;28;20026;-71
2021/06/27 00:30:17;;;;;;;97.70;50.60;;;;;;;;;;4997478;28;20038;-70
2021/06/27 00:32:44;;;;;;;103.00;56.58;;;;;;;;;;4988866;28;20046;-69
2021/06/27 00:35:11;;;;;;;102.78;54.70;;;;;;;;;;4988349;28;20027;-70
2021/06/27 00:37:37;;;;;;;100.38;57.47;;;;;;;;;;4989996;28;20042;-70
2021/06/27 00:40:06;;;;;;;127.95;69.82;;;;;;;;;;5005604;28;20026;-70
2021/06/27 00:42:32;;;;;;;116.95;66.38;;;;;;;;;;4990442;28;20049;-70
2021/06/27 00:44:59;;;;;;;107.80;63.35;;;;;;;;;;4994339;28;20034;-70
2021/06/27 00:47:32;;;;;;;132.10;70.88;;;;;;;;;;5009467;28;20022;-71
2021/06/27 00:49:58;;;;;;;102.07;60.10;;;;;;;;;;4996445;28;20076;-70
2021/06/27 00:52:24;;;;;;;118.70;66.53;;;;;;;;;;4991609;28;20456;-70
2021/06/27 00:54:51;;;;;;;138.48;73.30;;;;;;;;;;4998885;28;20026;-70
2021/06/27 00:57:17;;;;;;;139.15;78.82;;;;;;;;;;4988608;28;20034;-71
2021/06/27 00:59:43;;;;;;;153.15;82.10;;;;;;;;;;4990699;28;20076;-70
2021/06/27 01:02:09;;;;;;;146.77;80.25;;;;;;;;;;4999058;28;20113;-71
2021/06/27 01:04:37;;;;;;;143.75;79.72;;;;;;;;;;4989754;28;20027;-70
2021/06/27 01:07:03;;;;;;;142.68;80.25;;;;;;;;;;4985222;28;20041;-70
2021/06/27 01:09:29;;;;;;;148.07;80.68;;;;;;;;;;4974225;28;20509;-70
2021/06/27 01:11:57;;;;;;;138.57;76.15;;;;;;;;;;4987600;28;20532;-70
2021/06/27 01:14:23;;;;;;;122.25;73.72;;;;;;;;;;5021510;28;20049;-70
2021/06/27 01:16:49;;;;;;;124.25;72.13;;;;;;;;;;5015818;28;20038;-70
2021/06/27 01:19:15;;;;;;;120.80;70.68;;;;;;;;;;5001467;28;20516;-71
2021/06/27 01:21:41;;;;;;;144.10;78.45;;;;;;;;;;4996001;28;20023;-70
2021/06/27 01:24:08;;;;;;;122.03;71.88;;;;;;;;;;4991103;28;20094;-70
2021/06/27 01:26:34;;;;;;;134.30;77.82;;;;;;;;;;5039769;28;20034;-70
2021/06/27 01:29:00;;;;;;;134.27;79.50;;;;;;;;;;4999236;28;20127;-70
2021/06/27 01:31:26;;;;;;;149.02;90.38;;;;;;;;;;4988584;28;20087;-70
2021/06/27 01:33:53;;;;;;;145.85;86.45;;;;;;;;;;5007435;28;20021;-70
2021/06/27 01:36:19;;;;;;;139.75;86.43;;;;;;;;;;5001934;28;20122;-70
2021/06/27 01:38:45;;;;;;;149.20;90.63;;;;;;;;;;4999218;28;20018;-70
2021/06/27 01:41:11;;;;;;;140.48;87.78;;;;;;;;;;4996749;28;20031;-70
2021/06/27 01:43:37;;;;;;;141.45;86.35;;;;;;;;;;5001570;28;20041;-70
2021/06/27 01:46:03;;;;;;;126.57;81.32;;;;;;;;;;5007482;28;20037;-70
2021/06/27 01:48:30;;;;;;;132.40;78.85;;;;;;;;;;5000681;28;20022;-69
2021/06/27 01:50:57;;;;;;;128.98;84.93;;;;;;;;;;5050378;28;20171;-71
2021/06/27 01:53:26;;;;;;;123.40;77.63;;;;;;;;;;5012219;28;20024;-70
2021/06/27 01:56:04;;;;;;;134.63;82.70;;;;;;;;;;5007708;28;20087;-71
2021/06/27 01:58:31;;;;;;;126.82;80.78;;;;;;;;;;5012707;28;20138;-70
2021/06/27 02:00:57;;;;;;;126.57;81.90;;;;;;;;;;5007290;28;20515;-70
2021/06/27 02:03:23;;;;;;;128.63;81.93;;;;;;;;;;4992222;28;20027;-70
2021/06/27 02:05:49;;;;;;;130.25;81.18;;;;;;;;;;4996640;28;20015;-70
2021/06/27 02:08:15;;;;;;;116.78;73.40;;;;;;;;;;4996561;28;20113;-70
2021/06/27 02:10:42;;;;;;;133.35;78.45;;;;;;;;;;5035257;28;20034;-70
2021/06/27 02:13:08;;;;;;;132.18;81.40;;;;;;;;;;5024768;28;20026;-70
2021/06/27 02:15:34;;;;;;;123.07;76.25;;;;;;;;;;4992489;28;20493;-70
2021/06/27 02:18:19;;;;;;;132.68;80.85;;;;;;;;;;5012934;28;20626;-70
2021/06/27 02:20:46;;;;;;;129.73;78.10;;;;;;;;;;5035284;28;20536;-70
2021/06/27 02:23:12;;;;;;;131.57;79.20;;;;;;;;;;4986709;28;20019;-70
2021/06/27 02:25:38;;;;;;;131.60;81.55;;;;;;;;;;4993486;28;20087;-70
2021/06/27 02:28:05;;;;;;;132.57;81.95;;;;;;;;;;4983856;28;20079;-70
2021/06/27 02:30:31;;;;;;;129.68;79.45;;;;;;;;;;5006987;28;20116;-70
2021/06/27 02:32:57;;;;;;;127.75;81.30;;;;;;;;;;4993055;28;20061;-71
2021/06/27 02:35:23;;;;;;;130.95;85.43;;;;;;;;;;4999054;28;20021;-71
2021/06/27 02:37:49;;;;;;;123.72;81.22;;;;;;;;;;5007892;28;20103;-70
2021/06/27 02:40:15;;;;;;;119.53;74.47;;;;;;;;;;5002829;28;20022;-71
2021/06/27 02:42:41;;;;;;;122.45;78.90;;;;;;;;;;4990176;28;20485;-70
2021/06/27 02:45:09;;;;;;;127.60;74.78;;;;;;;;;;4998453;28;20044;-71
2021/06/27 02:47:36;;;;;;;126.95;76.53;;;;;;;;;;5007202;28;20263;-71
2021/06/27 02:50:03;;;;;;;127.18;74.30;;;;;;;;;;4979214;28;20035;-70
2021/06/27 02:52:29;;;;;;;123.13;77.13;;;;;;;;;;4992403;28;20493;-70
2021/06/27 02:54:55;;;;;;;129.13;78.75;;;;;;;;;;4992978;28;20026;-71
2021/06/27 02:57:21;;;;;;;121.30;77.50;;;;;;;;;;4993078;28;20026;-70
2021/06/27 02:59:47;;;;;;;126.43;79.78;;;;;;;;;;5005051;28;20488;-70
2021/06/27 03:02:13;;;;;;;127.88;76.28;;;;;;;;;;4987600;28;20113;-70
2021/06/27 03:04:39;;;;;;;117.60;75.80;;;;;;;;;;4987659;28;20517;-70
2021/06/27 03:07:05;;;;;;;122.25;80.93;;;;;;;;;;4987874;28;20031;-70
2021/06/27 03:09:31;;;;;;;115.88;76.93;;;;;;;;;;4992035;28;20049;-70
2021/06/27 03:11:57;;;;;;;122.07;78.18;;;;;;;;;;4992492;28;20033;-70
2021/06/27 03:14:23;;;;;;;112.15;75.30;;;;;;;;;;4999653;28;20026;-71
2021/06/27 03:16:49;;;;;;;112.60;73.63;;;;;;;;;;4992181;28;20030;-71
2021/06/27 03:19:15;;;;;;;116.70;76.72;;;;;;;;;;5001418;28;20058;-70
2021/06/27 03:21:43;;;;;;;127.18;75.22;;;;;;;;;;4992811;28;20028;-70
2021/06/27 03:24:09;;;;;;;117.25;76.32;;;;;;;;;;4994512;28;20045;-70
2021/06/27 03:26:35;;;;;;;113.85;74.25;;;;;;;;;;4996785;28;20040;-70
2021/06/27 03:29:01;;;;;;;108.03;70.25;;;;;;;;;;5004106;28;20106;-71
2021/06/27 03:31:27;;;;;;;116.05;74.93;;;;;;;;;;4991660;28;20041;-70
2021/06/27 03:33:53;;;;;;;116.93;74.88;;;;;;;;;;4987518;28;20033;-70
2021/06/27 03:36:19;;;;;;;117.43;78.25;;;;;;;;;;5009569;28;20501;-71
2021/06/27 03:41:24;;;;;;;110.78;70.93;;;;;;;;;;4993551;28;20113;-71
2021/06/27 03:43:50;;;;;;;107.40;69.90;;;;;;;;;;5001283;28;20493;-70
2021/06/27 03:46:17;;;;;;;105.18;75.50;;;;;;;;;;5006929;28;20032;-71
2021/06/27 03:48:43;;;;;;;103.30;71.72;;;;;;;;;;5010668;28;20037;-70
2021/06/27 03:51:09;;;;;;;106.18;67.57;;;;;;;;;;5009700;28;20030;-70
2021/06/27 03:53:35;;;;;;;106.60;68.63;;;;;;;;;;4997924;28;20030;-70
2021/06/27 03:56:01;;;;;;;108.32;66.70;;;;;;;;;;4991299;28;20088;-70
2021/06/27 03:58:28;;;;;;;100.13;67.68;;;;;;;;;;4998665;28;20035;-70
2021/06/27 04:00:54;;;;;;;100.82;64.78;;;;;;;;;;4997837;28;20105;-70
2021/06/27 04:03:21;;;;;;;96.63;62.13;;;;;;;;;;4989265;28;20030;-70
2021/06/27 04:05:47;;;;;;;94.60;67.05;;;;;;;;;;4991073;28;20024;-69
2021/06/27 04:08:13;;;;;;;97.57;63.38;;;;;;;;;;4997285;28;20026;-70
2021/06/27 04:10:39;;;;;;;95.95;63.22;;;;;;;;;;5008648;28;20030;-70
2021/06/27 04:13:05;;;;;;;92.95;62.40;;;;;;;;;;5001163;28;20105;-70
2021/06/27 04:15:32;;;;;;;82.78;60.45;;;;;;;;;;4999571;28;20519;-70
2021/06/27 04:17:58;;;;;;;88.65;60.45;;;;;;;;;;5025736;28;20110;-70
2021/06/27 04:20:24;;;;;;;92.63;60.13;;;;;;;;;;4989962;28;20409;-70
2021/06/27 04:22:51;;;;;;;86.78;59.13;;;;;;;;;;4989775;28;20022;-70
2021/06/27 04:25:17;;;;;;;85.88;57.90;;;;;;;;;;4992897;28;20022;-71
2021/06/27 04:27:43;;;;;;;88.28;56.85;;;;;;;;;;4994324;28;20053;-70
2021/06/27 04:30:10;;;;;;;81.35;56.90;;;;;;;;;;5009921;28;20022;-70
2021/06/27 04:32:36;;;;;;;86.32;57.15;;;;;;;;;;4986077;28;20019;-70
2021/06/27 04:35:02;;;;;;;79.70;53.45;;;;;;;;;;4996251;28;20644;-70
2021/06/27 04:37:28;;;;;;;82.88;55.83;;;;;;;;;;5000644;28;20043;-70
2021/06/27 04:39:54;;;;;;;88.50;56.67;;;;;;;;;;4989818;28;20516;-70
2021/06/27 04:42:20;;;;;;;88.72;57.47;;;;;;;;;;4995521;28;20045;-70
2021/06/27 04:44:46;;;;;;;80.20;56.80;;;;;;;;;;5004501;28;20029;-70
2021/06/27 04:47:12;;;;;;;81.22;54.35;;;;;;;;;;5008873;28;20026;-70
2021/06/27 04:49:39;;;;;;;85.55;58.33;;;;;;;;;;4990578;28;20031;-70
2021/06/27 04:52:07;;;;;;;82.28;56.60;;;;;;;;;;5034562;28;20034;-70
2021/06/27 04:54:33;;;;;;;79.07;54.55;;;;;;;;;;5000049;28;20026;-70
2021/06/27 04:56:59;;;;;;;84.70;58.55;;;;;;;;;;4997988;28;20022;-69
2021/06/27 04:59:25;;;;;;;83.05;55.38;;;;;;;;;;4989334;28;20019;-70
2021/06/27 05:01:51;;;;;;;78.18;56.05;;;;;;;;;;4999885;28;20509;-70
2021/06/27 05:04:17;;;;;;;77.97;54.85;;;;;;;;;;4990076;28;20030;-69
2021/06/27 05:06:43;;;;;;;78.55;52.30;;;;;;;;;;4991627;28;20030;-70
2021/06/27 05:09:09;;;;;;;72.90;53.38;;;;;;;;;;4989996;28;20083;-70
2021/06/27 05:11:35;;;;;;;77.00;53.78;;;;;;;;;;5007068;28;20186;-70
2021/06/27 05:14:01;;;;;;;75.90;54.63;;;;;;;;;;5005723;28;20034;-70
2021/06/27 05:16:27;;;;;;;79.10;54.38;;;;;;;;;;4999292;28;20521;-70
2021/06/27 05:18:53;;;;;;;76.72;53.47;;;;;;;;;;4990321;28;20519;-70
2021/06/27 05:21:19;;;;;;;73.57;54.05;;;;;;;;;;4988848;28;20064;-70
2021/06/27 05:23:45;;;;;;;73.05;51.53;;;;;;;;;;4999547;28;20034;-69
2021/06/27 05:26:11;;;;;;;74.18;51.63;;;;;;;;;;5006590;28;20405;-70
2021/06/27 05:28:37;;;;;;;75.05;52.70;;;;;;;;;;5007551;28;20033;-70
2021/06/27 05:31:03;;;;;;;73.75;50.78;;;;;;;;;;5008254;28;20033;-70
2021/06/27 05:33:29;;;;;;;69.82;51.05;;;;;;;;;;4997226;28;20030;-70
2021/06/27 05:35:55;;;;;;;72.43;50.80;;;;;;;;;;5000953;28;20417;-70
2021/06/27 05:38:21;;;;;;;77.63;53.17;;;;;;;;;;5000333;28;20034;-70
2021/06/27 05:40:48;;;;;;;72.90;52.95;;;;;;;;;;4982963;28;20023;-70
2021/06/27 05:43:14;;;;;;;77.15;55.15;;;;;;;;;;4973708;28;20117;-70
2021/06/27 05:45:40;;;;;;;76.13;53.08;;;;;;;;;;4987419;28;20590;-70
2021/06/27 05:48:06;;;;;;;73.82;51.22;;;;;;;;;;4989648;28;20034;-70
2021/06/27 05:50:32;;;;;;;72.93;52.67;;;;;;;;;;4983396;28;20041;-70
2021/06/27 05:52:58;;;;;;;72.10;51.58;;;;;;;;;;4979146;28;20030;-70
2021/06/27 05:55:24;;;;;;;71.88;52.05;;;;;;;;;;4994236;28;20031;-70
2021/06/27 05:57:50;;;;;;;66.72;47.92;;;;;;;;;;4988911;28;20093;-70
2021/06/27 06:00:17;;;;;;;69.95;48.33;;;;;;;;;;4989085;28;20126;-70
2021/06/27 06:02:43;;;;;;;61.80;48.67;;;;;;;;;;4988173;28;20031;-71
2021/06/27 06:05:09;;;;;;;69.55;48.47;;;;;;;;;;4997338;28;20026;-70
2021/06/27 06:07:35;;;;;;;68.75;48.40;;;;;;;;;;5007331;28;20045;-70
2021/06/27 06:10:01;;;;;;;62.63;45.13;;;;;;;;;;4999734;28;20042;-71
2021/06/27 06:12:27;;;;;;;65.28;45.63;;;;;;;;;;4998956;28;20064;-70
2021/06/27 06:14:53;;;;;;;62.75;45.80;;;;;;;;;;4988970;28;20083;-69
2021/06/27 06:17:19;;;;;;;64.95;46.88;;;;;;;;;;5003657;28;20034;-70
2021/06/27 06:19:50;;;;;;;60.55;45.13;;;;;;;;;;5005010;28;20018;-70
2021/06/27 06:22:16;;;;;;;66.35;47.15;;;;;;;;;;4992390;28;20085;-69
2021/06/27 06:24:42;;;;;;;67.07;48.55;;;;;;;;;;5001406;28;20053;-72
2021/06/27 06:27:08;;;;;;;63.45;42.15;;;;;;;;;;4988452;28;20026;-70
2021/06/27 06:29:34;;;;;;;62.08;45.25;;;;;;;;;;4998818;28;20023;-70
2021/06/27 06:32:00;;;;;;;63.78;46.30;;;;;;;;;;4997063;28;20042;-69
2021/06/27 06:34:26;;;;;;;59.08;43.63;;;;;;;;;;4997826;28;20041;-69
2021/06/27 06:36:52;;;;;;;61.63;43.13;;;;;;;;;;5007989;28;20050;-70
2021/06/27 06:39:19;;;;;;;57.53;42.92;;;;;;;;;;4999491;28;20022;-70
2021/06/27 06:41:45;;;;;;;60.45;43.75;;;;;;;;;;5000138;28;20015;-70
2021/06/27 06:44:11;;;;;;;51.78;40.30;;;;;;;;;;4979409;28;20665;-71
2021/06/27 06:46:37;;;;;;;60.03;43.60;;;;;;;;;;4986047;28;20026;-69
2021/06/27 06:49:03;;;;;;;56.75;42.47;;;;;;;;;;4978914;28;20497;-70
2021/06/27 06:51:29;;;;;;;56.35;43.40;;;;;;;;;;4999601;28;20030;-70
2021/06/27 06:53:55;;;;;;;51.97;42.15;;;;;;;;;;5006956;28;20034;-70
2021/06/27 06:56:21;;;;;;;53.28;39.00;;;;;;;;;;4996596;28;20026;-70
2021/06/27 06:58:47;;;;;;;49.50;37.90;;;;;;;;;;4997846;28;20033;-70
2021/06/27 07:01:13;;;;;;;50.67;39.05;;;;;;;;;;4995044;28;20030;-70
2021/06/27 07:03:40;;;;;;;51.17;39.28;;;;;;;;;;4995111;28;20508;-69
2021/06/27 07:06:06;;;;;;;50.90;40.47;;;;;;;;;;4998831;28;20129;-69
2021/06/27 07:08:32;;;;;;;52.63;41.63;;;;;;;;;;4995106;28;20026;-72
2021/06/27 07:10:58;;;;;;;54.28;42.00;;;;;;;;;;5004683;28;20075;-71
2021/06/27 07:13:24;;;;;;;49.72;38.97;;;;;;;;;;5004716;28;20434;-69
2021/06/27 07:15:50;;;;;;;51.08;38.70;;;;;;;;;;4996153;28;20026;-69
2021/06/27 07:18:16;;;;;;;50.28;39.03;;;;;;;;;;4991119;28;20023;-69
2021/06/27 07:20:42;;;;;;;53.30;36.72;;;;;;;;;;4991664;28;20561;-70
2021/06/27 07:23:08;;;;;;;48.78;36.08;;;;;;;;;;4987429;28;20413;-70
2021/06/27 07:25:34;;;;;;;47.97;37.10;;;;;;;;;;4991423;28;20551;-70
2021/06/27 07:28:00;;;;;;;50.80;38.83;;;;;;;;;;4994028;28;20061;-70
2021/06/27 07:30:26;;;;;;;47.13;37.63;;;;;;;;;;4990955;28;20109;-70
2021/06/27 07:32:52;;;;;;;53.85;38.47;;;;;;;;;;4992522;28;20022;-70
2021/06/27 07:35:18;;;;;;;49.30;35.95;;;;;;;;;;4990798;28;20026;-70
2021/06/27 07:37:45;;;;;;;50.05;36.13;;;;;;;;;;4989043;28;20468;-70
2021/06/27 07:40:11;;;;;;;45.00;36.88;;;;;;;;;;4993993;28;20034;-70
2021/06/27 07:42:37;;;;;;;47.20;37.78;;;;;;;;;;4995356;28;20030;-70
2021/06/27 07:45:04;;;;;;;56.25;37.55;;;;;;;;;;5011719;28;20034;-70
2021/06/27 07:47:30;;;;;;;47.95;36.88;;;;;;;;;;4994618;28;20034;-70
2021/06/27 07:49:56;;;;;;;49.90;36.55;;;;;;;;;;4990139;28;20031;-69
2021/06/27 07:52:22;;;;;;;48.30;37.08;;;;;;;;;;4993690;28;20038;-70
2021/06/27 07:54:48;;;;;;;48.22;36.50;;;;;;;;;;4992550;28;20034;-70
2021/06/27 07:57:14;;;;;;;49.20;35.85;;;;;;;;;;4987384;28;20042;-71
2021/06/27 07:59:40;;;;;;;48.72;36.78;;;;;;;;;;4989478;28;20496;-70
2021/06/27 08:02:07;;;;;;;49.78;37.83;;;;;;;;;;4990379;28;20026;-71
2021/06/27 08:04:33;;;;;;;50.35;38.15;;;;;;;;;;4978492;28;20037;-72
2021/06/27 08:06:59;;;;;;;49.28;37.72;;;;;;;;;;5001147;28;20079;-71
2021/06/27 08:09:25;;;;;;;46.25;37.70;;;;;;;;;;4986188;28;20490;-71
2021/06/27 08:11:51;;;;;;;47.63;35.80;;;;;;;;;;4984583;28;21532;-69
2021/06/27 08:14:17;;;;;;;51.35;37.15;;;;;;;;;;4989542;28;20409;-70
2021/06/27 08:16:43;;;;;;;46.45;34.72;;;;;;;;;;4992295;28;20030;-69
2021/06/27 08:19:09;;;;;;;48.90;37.95;;;;;;;;;;4987706;28;20026;-71
2021/06/27 08:21:35;;;;;;;49.20;37.53;;;;;;;;;;4985001;28;20590;-70
2021/06/27 08:24:01;;;;;;;48.17;36.35;;;;;;;;;;4990821;28;20119;-70
2021/06/27 08:26:27;;;;;;;47.22;35.35;;;;;;;;;;5045530;28;20493;-70
2021/06/27 08:28:54;;;;;;;49.85;37.75;;;;;;;;;;4984987;28;20027;-70
2021/06/27 08:31:23;;;;;;;50.45;35.15;;;;;;;;;;4986123;28;20100;-69
2021/06/27 08:33:50;;;;;;;45.80;34.97;;;;;;;;;;4985698;28;20019;-69
2021/06/27 08:36:16;;;;;;;46.28;33.92;;;;;;;;;;4989100;28;20485;-70
2021/06/27 08:38:42;;;;;;;42.42;33.13;;;;;;;;;;4988764;28;20481;-70
2021/06/27 08:41:08;;;;;;;38.90;31.63;;;;;;;;;;4990786;28;20147;-71
2021/06/27 08:43:35;;;;;;;44.13;31.90;;;;;;;;;;4991084;28;20114;-73
2021/06/27 08:46:05;;;;;;;43.60;32.35;;;;;;;;;;4988609;28;20041;-71
2021/06/27 08:48:34;;;;;;;45.22;32.00;;;;;;;;;;4987925;28;20124;-69
2021/06/27 08:51:01;;;;;;;43.97;33.97;;;;;;;;;;4987319;28;20087;-69
2021/06/27 08:53:27;;;;;;;43.85;32.05;;;;;;;;;;4985250;28;20030;-69
2021/06/27 08:56:05;;;;;;;42.58;33.25;;;;;;;;;;4993591;28;20031;-71
2021/06/27 08:58:41;;;;;;;42.05;33.13;;;;;;;;;;4989125;28;20026;-71
2021/06/27 09:01:11;;;;;;;45.25;33.20;;;;;;;;;;4989378;28;20015;-70
2021/06/27 09:03:38;;;;;;;42.05;32.72;;;;;;;;;;4987792;28;20247;-68
2021/06/27 09:06:04;;;;;;;40.97;33.72;;;;;;;;;;4989541;28;20033;-71
2021/06/27 09:08:30;;;;;;;43.85;34.20;;;;;;;;;;4989019;28;20038;-71
2021/06/27 09:10:56;;;;;;;42.83;33.67;;;;;;;;;;4984144;28;20037;-69
2021/06/27 09:13:37;;;;;;;43.05;31.52;;;;;;;;;;4987816;28;20042;-70
2021/06/27 09:16:16;;;;;;;48.38;32.88;;;;;;;;;;4987183;28;20036;-70
2021/06/27 09:18:42;;;;;;;40.63;31.38;;;;;;;;;;4988566;28;20547;-71
2021/06/27 09:21:08;;;;;;;45.45;34.75;;;;;;;;;;4988220;28;20033;-72
2021/06/27 09:23:37;;;;;;;49.85;33.58;;;;;;;;;;4987786;28;20026;-70
2021/06/27 09:26:03;;;;;;;45.20;32.65;;;;;;;;;;4987353;28;20623;-70
2021/06/27 09:28:59;;;;;;;49.30;35.80;;;;;;;;;;4986432;28;20085;-73
2021/06/27 09:31:32;;;;;;;48.30;36.47;;;;;;;;;;4978295;28;20198;-72
2021/06/27 09:33:59;;;;;;;44.17;32.75;;;;;;;;;;4988688;28;20053;-71
2021/06/27 09:36:25;;;;;;;45.78;37.03;;;;;;;;;;4986679;28;20077;-72
2021/06/27 09:38:53;;;;;;;49.40;38.22;;;;;;;;;;4989752;28;20027;-71
2021/06/27 09:41:36;;;;;;;46.22;36.42;;;;;;;;;;4990457;28;20034;-70
2021/06/27 09:44:04;;;;;;;42.42;34.38;;;;;;;;;;4987760;28;20027;-70
2021/06/27 09:46:37;;;;;;;46.35;34.67;;;;;;;;;;4989158;28;20117;-71
2021/06/27 09:49:06;;;;;;;42.67;35.55;;;;;;;;;;4990015;28;20030;-71
2021/06/27 09:51:33;;;;;;;47.75;36.33;;;;;;;;;;4987397;28;20058;-70
2021/06/27 09:53:59;;;;;;;49.25;37.08;;;;;;;;;;4993724;28;20033;-71
2021/06/27 09:56:26;;;;;;;44.40;35.20;;;;;;;;;;4988650;28;20038;-71
2021/06/27 09:59:01;;;;;;;50.28;37.33;;;;;;;;;;4988427;28;20023;-71
2021/06/27 10:01:28;;;;;;;51.20;37.25;;;;;;;;;;4987758;28;20022;-71
2021/06/27 10:03:55;;;;;;;49.45;39.50;;;;;;;;;;4988721;28;20030;-71
2021/06/27 10:06:23;;;;;;;53.63;39.97;;;;;;;;;;4988853;28;20087;-70
2021/06/27 10:08:49;;;;;;;51.88;40.10;;;;;;;;;;5024203;28;20493;-71
2021/06/27 10:11:17;;;;;;;54.22;40.85;;;;;;;;;;4987884;28;20582;-71
2021/06/27 10:13:46;;;;;;;53.58;39.95;;;;;;;;;;4986152;28;20022;-72
2021/06/27 10:16:15;;;;;;;54.90;42.53;;;;;;;;;;4988617;28;20034;-70
2021/06/27 10:18:42;;;;;;;51.63;40.60;;;;;;;;;;4987864;28;20571;-69
2021/06/27 10:21:09;;;;;;;54.25;41.60;;;;;;;;;;4987416;28;20183;-71
2021/06/27 10:23:35;;;;;;;49.75;39.38;;;;;;;;;;4986977;28;20031;-71
2021/06/27 10:26:02;;;;;;;52.92;41.50;;;;;;;;;;4984894;28;20032;-72
2021/06/27 10:28:28;;;;;;;54.47;40.33;;;;;;;;;;4973839;28;20033;-71
2021/06/27 10:30:54;;;;;;;48.63;38.08;;;;;;;;;;4989096;28;20130;-71
2021/06/27 10:33:20;;;;;;;46.55;38.28;;;;;;;;;;4988649;28;20030;-71
2021/06/27 10:35:51;;;;;;;47.42;37.05;;;;;;;;;;4989444;28;20147;-72
2021/06/27 10:38:20;;;;;;;45.22;35.83;;;;;;;;;;4988500;28;20045;-69
2021/06/27 10:40:50;;;;;;;43.22;34.13;;;;;;;;;;4983802;28;20080;-71
2021/06/27 10:43:16;;;;;;;46.55;35.30;;;;;;;;;;4987683;28;20042;-70
2021/06/27 10:45:49;;;;;;;47.95;35.35;;;;;;;;;;4988207;28;20030;-72
2021/06/27 10:48:33;;;;;;;45.60;32.22;;;;;;;;;;4986013;28;20369;-71
2021/06/27 10:51:10;;;;;;;46.13;32.97;;;;;;;;;;4988005;28;20165;-71
2021/06/27 10:53:55;;;;;;;45.25;30.60;;;;;;;;;;4988270;28;20038;-71
2021/06/27 10:56:39;;;;;;;37.60;32.40;;;;;;;;;;4987400;28;20027;-71
2021/06/27 10:59:05;;;;;;;38.88;30.13;;;;;;;;;;4985881;28;20073;-71
2021/06/27 11:01:31;;;;;;;36.97;29.50;;;;;;;;;;5056149;28;20025;-68
2021/06/27 11:04:17;;;;;;;37.80;27.98;;;;;;;;;;4988328;28;20030;-69
2021/06/27 11:06:43;;;;;;;35.05;29.52;;;;;;;;;;4987511;28;20030;-69
2021/06/27 11:09:30;;;;;;;32.13;26.98;;;;;;;;;;4987435;28;20030;-71
2021/06/27 11:11:57;;;;;;;36.40;28.20;;;;;;;;;;4982988;28;20426;-70
2021/06/27 11:14:24;;;;;;;31.80;25.02;;;;;;;;;;4987171;28;20026;-68
2021/06/27 11:17:02;;;;;;;30.30;25.10;;;;;;;;;;4985219;28;20035;-70
2021/06/27 11:19:40;;;;;;;33.58;26.33;;;;;;;;;;4986124;28;20023;-68
2021/06/27 11:22:24;;;;;;;28.58;23.50;;;;;;;;;;4981794;28;20047;-68
2021/06/27 11:24:54;;;;;;;31.58;24.85;;;;;;;;;;4980369;28;20075;-69
2021/06/27 11:27:27;;;;;;;27.95;21.77;;;;;;;;;;4986820;28;20026;-69
2021/06/27 11:29:53;;;;;;;31.63;23.75;;;;;;;;;;4986817;28;20025;-68
2021/06/27 11:32:25;;;;;;;28.33;23.73;;;;;;;;;;4985889;28;20022;-70
2021/06/27 11:34:52;;;;;;;27.25;22.15;;;;;;;;;;4987950;28;20064;-69
2021/06/27 11:37:18;;;;;;;30.35;23.08;;;;;;;;;;4985904;28;20068;-69
2021/06/27 11:39:44;;;;;;;28.10;22.02;;;;;;;;;;4988628;28;20109;-69
2021/06/27 11:42:23;;;;;;;26.15;22.13;;;;;;;;;;4986541;28;20027;-71
2021/06/27 11:45:11;;;;;;;32.22;22.58;;;;;;;;;;4991485;28;20027;-71
2021/06/27 11:47:40;;;;;;;25.05;20.83;;;;;;;;;;5008698;28;20030;-70
2021/06/27 11:50:18;;;;;;;24.90;20.15;;;;;;;;;;4991520;28;20057;-69
2021/06/27 11:52:45;;;;;;;30.90;20.67;;;;;;;;;;4994102;28;20030;-70
2021/06/27 11:55:11;;;;;;;29.17;20.67;;;;;;;;;;4990347;28;20042;-69
2021/06/27 11:57:40;;;;;;;28.02;21.25;;;;;;;;;;4988505;28;20092;-68
2021/06/27 12:00:07;;;;;;;25.38;20.35;;;;;;;;;;5023122;28;20028;-70
2021/06/27 12:02:36;;;;;;;29.85;21.92;;;;;;;;;;5047356;28;20023;-69
2021/06/27 12:05:02;;;;;;;29.10;23.90;;;;;;;;;;4990576;28;20371;-69
2021/06/27 12:07:57;;;;;;;33.97;26.33;;;;;;;;;;4990675;28;20039;-69
2021/06/27 12:10:23;;;;;;;31.17;23.58;;;;;;;;;;4978871;28;20105;-69
2021/06/27 12:12:57;;;;;;;38.42;29.95;;;;;;;;;;4986780;28;20038;-69
2021/06/27 12:15:23;;;;;;;46.08;32.53;;;;;;;;;;5022056;28;20581;-68
2021/06/27 12:17:58;;;;;;;44.45;32.60;;;;;;;;;;5021218;28;20406;-69
2021/06/27 12:20:24;;;;;;;49.13;34.08;;;;;;;;;;4989611;28;20057;-68
2021/06/27 12:23:00;;;;;;;40.22;29.60;;;;;;;;;;4987737;28;20105;-68
2021/06/27 12:25:33;;;;;;;43.80;31.45;;;;;;;;;;4989752;28;20113;-70
2021/06/27 12:28:01;;;;;;;39.38;28.80;;;;;;;;;;4990982;28;20048;-69
2021/06/27 12:30:41;;;;;;;35.33;27.25;;;;;;;;;;5001179;28;20041;-69
2021/06/27 12:33:09;;;;;;;34.75;26.98;;;;;;;;;;4999896;28;20034;-68
2021/06/27 12:35:41;;;;;;;38.97;25.88;;;;;;;;;;4987743;28;20540;-67
2021/06/27 12:38:08;;;;;;;34.50;23.48;;;;;;;;;;4994501;28;20038;-69
2021/06/27 12:40:35;;;;;;;34.55;24.30;;;;;;;;;;4989747;28;20058;-68
2021/06/27 12:43:01;;;;;;;29.60;22.35;;;;;;;;;;4990834;28;20041;-69
2021/06/27 12:45:27;;;;;;;35.50;26.85;;;;;;;;;;4989536;28;20041;-68
2021/06/27 12:47:56;;;;;;;37.42;26.23;;;;;;;;;;4989028;28;20038;-68
2021/06/27 12:50:35;;;;;;;35.80;26.63;;;;;;;;;;4989445;28;20022;-69
2021/06/27 12:53:06;;;;;;;36.60;25.98;;;;;;;;;;4989221;28;20056;-67
2021/06/27 12:55:32;;;;;;;40.28;26.30;;;;;;;;;;4999334;28;20324;-69
2021/06/27 12:57:58;;;;;;;38.40;28.63;;;;;;;;;;4987721;28;20038;-68
2021/06/27 13:00:25;;;;;;;36.47;28.00;;;;;;;;;;4988095;28;20034;-68
2021/06/27 13:02:51;;;;;;;36.33;26.58;;;;;;;;;;4986854;28;20034;-68
2021/06/27 13:05:19;;;;;;;36.30;25.73;;;;;;;;;;4988634;28;20577;-69
2021/06/27 13:07:47;;;;;;;34.65;25.00;;;;;;;;;;4995805;28;20121;-68
2021/06/27 13:10:20;;;;;;;31.98;22.88;;;;;;;;;;5000165;28;20459;-69
2021/06/27 13:12:46;;;;;;;34.00;23.25;;;;;;;;;;4985871;28;20422;-68
2021/06/27 13:15:14;;;;;;;39.17;27.67;;;;;;;;;;4997363;28;20493;-68
2021/06/27 13:17:53;;;;;;;38.13;26.73;;;;;;;;;;4976919;28;20034;-67
2021/06/27 13:20:21;;;;;;;36.30;24.08;;;;;;;;;;4983581;28;20037;-68
2021/06/27 13:22:53;;;;;;;34.75;23.90;;;;;;;;;;4987012;28;20035;-69
2021/06/27 13:25:29;;;;;;;31.00;22.30;;;;;;;;;;4978939;28;20740;-68
2021/06/27 13:27:55;;;;;;;31.08;21.60;;;;;;;;;;4982161;28;20039;-68
2021/06/27 13:30:22;;;;;;;35.63;23.23;;;;;;;;;;4986456;28;20034;-68
2021/06/27 13:32:48;;;;;;;34.63;23.08;;;;;;;;;;4979944;28;20041;-68
2021/06/27 13:35:34;;;;;;;39.00;23.35;;;;;;;;;;4983403;28;20027;-69
2021/06/27 13:38:02;;;;;;;36.15;24.17;;;;;;;;;;4981903;28;20134;-69
2021/06/27 13:40:28;;;;;;;32.80;22.98;;;;;;;;;;4981142;28;20053;-69
2021/06/27 13:42:55;;;;;;;34.88;20.77;;;;;;;;;;4978459;28;20026;-68
2021/06/27 13:45:22;;;;;;;32.05;20.90;;;;;;;;;;4979408;28;20029;-67
2021/06/27 13:47:52;;;;;;;35.35;21.75;;;;;;;;;;4982983;28;20026;-68
2021/06/27 13:50:18;;;;;;;28.25;19.98;;;;;;;;;;4980982;28;20018;-68
2021/06/27 13:52:45;;;;;;;30.05;21.00;;;;;;;;;;4978505;28;20132;-68
2021/06/27 13:55:12;;;;;;;34.13;21.55;;;;;;;;;;4983573;28;20025;-69
2021/06/27 13:57:38;;;;;;;31.80;22.23;;;;;;;;;;4976518;28;20282;-68
2021/06/27 14:00:06;;;;;;;25.95;18.33;;;;;;;;;;4981710;28;20033;-68
2021/06/27 14:02:32;;;;;;;23.65;16.52;;;;;;;;;;4981368;28;20057;-68
2021/06/27 14:04:58;;;;;;;31.80;19.60;;;;;;;;;;4982905;28;20030;-68
2021/06/27 14:07:24;;;;;;;25.60;18.13;;;;;;;;;;4977079;28;20050;-68
2021/06/27 14:09:50;;;;;;;30.63;19.23;;;;;;;;;;4982266;28;20477;-68
2021/06/27 14:12:16;;;;;;;28.55;18.42;;;;;;;;;;4977611;28;20033;-69
2021/06/27 14:14:42;;;;;;;27.98;18.60;;;;;;;;;;4978302;28;20030;-69
2021/06/27 14:17:08;;;;;;;27.95;18.98;;;;;;;;;;4977526;28;20098;-68
2021/06/27 14:19:34;;;;;;;33.47;20.60;;;;;;;;;;4975097;28;20057;-69